createdAt,value
2019-06-26T00:00:32.154Z,10.63
2019-06-26T00:02:33.341Z,9.65
2019-06-26T00:04:34.849Z,10.10
2019-06-26T00:08:37.122Z,10.25
2019-06-26T00:10:38.294Z,10.32
2019-06-26T00:12:39.493Z,9.55
2019-06-26T00:14:41.012Z,10.80
2019-06-26T00:18:43.706Z,10.82
2019-06-26T00:20:45.152Z,10.75
2019-06-26T00:22:46.516Z,10.90
2019-06-26T00:24:47.794Z,10.48
2019-06-26T00:26:49.069Z,10.20
2019-06-26T00:28:50.250Z,10.43
2019-06-26T00:30:51.511Z,11.97
2019-06-26T00:32:53.859Z,11.10
2019-06-26T00:34:55.307Z,12.07
2019-06-26T00:36:56.649Z,11.50
2019-06-26T00:38:58.026Z,11.95
2019-06-26T00:40:59.422Z,11.68
2019-06-26T00:43:00.689Z,10.38
2019-06-26T00:45:03.869Z,11.70
2019-06-26T00:47:05.167Z,10.78
2019-06-26T00:49:06.373Z,12.05
2019-06-26T00:51:07.909Z,10.32
2019-06-26T00:55:10.558Z,11.35
2019-06-26T00:57:11.850Z,10.65
2019-06-26T00:59:13.013Z,10.70
2019-06-26T01:01:14.218Z,10.75
2019-06-26T01:03:15.375Z,10.93
2019-06-26T01:05:18.322Z,11.93
2019-06-26T01:07:20.376Z,12.13
2019-06-26T01:11:22.707Z,12.43
2019-06-26T01:13:24.097Z,11.65
2019-06-26T01:15:25.402Z,12.43
2019-06-26T01:17:26.558Z,12.10
2019-06-26T01:19:27.729Z,15.00
2019-06-26T01:21:29.030Z,12.50
2019-06-26T01:25:32.344Z,13.98
2019-06-26T01:27:33.717Z,12.63
2019-06-26T01:31:36.050Z,12.82
2019-06-26T01:33:37.272Z,12.05
2019-06-26T01:35:38.461Z,13.00
2019-06-26T01:37:39.873Z,13.60
2019-06-26T01:39:41.026Z,12.68
2019-06-26T01:41:42.453Z,11.20
2019-06-26T01:43:43.950Z,12.85
2019-06-26T01:45:45.221Z,11.97
2019-06-26T01:47:46.520Z,12.90
2019-06-26T01:49:47.685Z,13.03
2019-06-26T01:51:49.110Z,11.55
2019-06-26T01:55:51.602Z,12.58
2019-06-26T01:59:54.177Z,12.18
2019-06-26T02:01:55.634Z,12.63
2019-06-26T02:05:58.123Z,12.95
2019-06-26T02:10:00.518Z,12.10
2019-06-26T02:12:02.120Z,12.88
2019-06-26T02:16:04.394Z,12.15
2019-06-26T02:18:07.450Z,13.55
2019-06-26T02:20:08.919Z,13.22
2019-06-26T02:24:11.474Z,11.60
2019-06-26T02:28:13.699Z,13.70
2019-06-26T02:30:14.971Z,12.23
2019-06-26T02:32:16.148Z,12.28
2019-06-26T02:34:17.575Z,13.05
2019-06-26T02:36:18.844Z,12.90
2019-06-26T02:38:20.014Z,13.28
2019-06-26T02:40:21.171Z,13.30
2019-06-26T02:42:22.348Z,12.05
2019-06-26T02:44:24.886Z,12.35
2019-06-26T02:48:27.132Z,13.13
2019-06-26T02:50:28.696Z,14.70
2019-06-26T02:52:29.868Z,13.90
2019-06-26T02:54:31.179Z,12.90
2019-06-26T02:56:32.406Z,13.10
2019-06-26T02:58:33.564Z,12.90
2019-06-26T03:00:34.855Z,14.28
2019-06-26T03:02:36.115Z,14.35
2019-06-26T03:04:37.570Z,15.68
2019-06-26T03:06:39.082Z,13.95
2019-06-26T03:10:41.580Z,13.28
2019-06-26T03:12:43.002Z,14.03
2019-06-26T03:14:44.178Z,12.15
2019-06-26T03:16:45.678Z,11.28
2019-06-26T03:20:55.676Z,13.98
2019-06-26T03:22:57.074Z,12.70
2019-06-26T03:24:58.270Z,13.08
2019-06-26T03:26:59.448Z,13.45
2019-06-26T03:29:00.628Z,12.53
2019-06-26T03:31:02.001Z,13.58
2019-06-26T03:35:05.482Z,14.33
2019-06-26T03:37:06.663Z,11.85
2019-06-26T03:39:07.930Z,14.93
2019-06-26T03:41:09.500Z,14.73
2019-06-26T03:45:25.024Z,14.58
2019-06-26T03:47:15.730Z,13.38
2019-06-26T03:49:16.937Z,13.78
2019-06-26T03:51:18.187Z,14.65
2019-06-26T03:53:19.511Z,14.35
2019-06-26T03:55:22.232Z,13.22
2019-06-26T03:57:23.393Z,16.07
2019-06-26T03:59:24.689Z,14.40
2019-06-26T04:01:25.870Z,15.28
2019-06-26T04:03:27.041Z,13.90
2019-06-26T04:05:28.201Z,17.23
2019-06-26T04:07:29.413Z,18.60
2019-06-26T04:09:30.677Z,20.68
2019-06-26T04:11:31.961Z,20.17
2019-06-26T04:13:33.130Z,19.65
2019-06-26T04:15:42.153Z,18.23
2019-06-26T04:17:37.682Z,17.05
2019-06-26T04:19:38.841Z,20.97
2019-06-26T04:21:40.015Z,19.17
2019-06-26T04:23:41.262Z,19.45
2019-06-26T04:25:42.423Z,20.55
2019-06-26T04:27:43.651Z,19.65
2019-06-26T04:29:44.856Z,21.07
2019-06-26T04:31:46.117Z,19.98
2019-06-26T04:33:47.273Z,21.80
2019-06-26T04:35:48.485Z,23.52
2019-06-26T04:37:49.673Z,19.65
2019-06-26T04:39:50.820Z,20.88
2019-06-26T04:41:52.273Z,19.45
2019-06-26T04:45:58.537Z,22.20
2019-06-26T04:47:57.656Z,24.52
2019-06-26T04:49:58.908Z,20.82
2019-06-26T04:52:00.315Z,19.77
2019-06-26T04:54:01.585Z,20.23
2019-06-26T04:56:03.941Z,20.85
2019-06-26T04:58:05.106Z,20.65
2019-06-26T05:00:07.360Z,19.55
2019-06-26T05:02:08.671Z,19.92
2019-06-26T05:06:11.997Z,20.50
2019-06-26T05:08:13.292Z,21.37
2019-06-26T05:10:16.508Z,18.57
2019-06-26T05:12:17.671Z,22.40
2019-06-26T05:14:18.925Z,21.85
2019-06-26T05:16:20.710Z,19.73
2019-06-26T05:18:22.062Z,20.25
2019-06-26T05:20:23.209Z,21.82
2019-06-26T05:22:24.463Z,21.82
2019-06-26T05:24:25.634Z,21.77
2019-06-26T05:26:26.816Z,21.65
2019-06-26T05:28:28.009Z,20.55
2019-06-26T05:30:29.421Z,20.48
2019-06-26T05:34:31.740Z,22.25
2019-06-26T05:36:34.944Z,23.20
2019-06-26T05:38:36.144Z,22.07
2019-06-26T05:40:37.461Z,21.73
2019-06-26T05:44:41.004Z,22.87
2019-06-26T05:46:42.259Z,22.45
2019-06-26T05:48:43.415Z,25.77
2019-06-26T05:50:44.839Z,22.20
2019-06-26T05:54:47.054Z,24.87
2019-06-26T05:56:48.209Z,23.10
2019-06-26T05:58:49.467Z,23.67
2019-06-26T06:00:50.708Z,21.50
2019-06-26T06:02:53.983Z,26.90
2019-06-26T06:04:55.211Z,21.73
2019-06-26T06:08:57.816Z,20.75
2019-06-26T06:10:59.313Z,21.07
2019-06-26T06:13:00.501Z,22.55
2019-06-26T06:15:05.927Z,21.45
2019-06-26T06:17:07.096Z,24.23
2019-06-26T06:19:08.532Z,21.85
2019-06-26T06:23:11.557Z,23.22
2019-06-26T06:25:12.814Z,21.57
2019-06-26T06:27:14.271Z,21.75
2019-06-26T06:29:15.463Z,23.80
2019-06-26T06:31:16.696Z,20.30
2019-06-26T06:35:19.899Z,23.77
2019-06-26T06:37:21.057Z,24.50
2019-06-26T06:39:22.241Z,25.50
2019-06-26T06:41:23.397Z,24.47
2019-06-26T06:43:24.632Z,23.60
2019-06-26T06:49:28.716Z,25.12
2019-06-26T06:51:29.869Z,23.05
2019-06-26T06:53:31.280Z,24.50
2019-06-26T07:11:42.163Z,24.50
2019-06-26T07:48:07.464Z,22.65
2019-06-26T09:02:52.383Z,15.05
2019-06-26T09:06:54.688Z,12.90
2019-06-26T09:10:56.989Z,16.55
2019-06-26T09:19:03.630Z,15.70
2019-06-26T09:49:23.157Z,15.83
2019-06-26T09:53:25.654Z,15.30
2019-06-26T09:55:26.820Z,12.40
2019-06-26T09:57:27.981Z,12.50
2019-06-26T09:59:29.149Z,12.77
2019-06-26T10:07:33.722Z,15.15
2019-06-26T10:11:36.138Z,14.70
2019-06-26T10:13:39.465Z,14.47
2019-06-26T10:31:50.073Z,13.30
2019-06-26T10:33:51.284Z,14.83
2019-06-26T10:37:53.735Z,14.40
2019-06-26T10:39:54.994Z,14.93
2019-06-26T10:43:57.377Z,12.40
2019-06-26T10:47:59.584Z,11.47
2019-06-26T10:52:01.823Z,9.68
2019-06-26T10:56:04.041Z,14.40
2019-06-26T11:00:07.238Z,12.30
2019-06-26T11:02:08.429Z,13.13
2019-06-26T11:04:09.741Z,13.00
2019-06-26T11:06:11.035Z,13.25
2019-06-26T11:08:12.220Z,14.10
2019-06-26T11:12:16.272Z,13.65
2019-06-26T11:16:18.518Z,15.45
2019-06-26T11:20:21.039Z,12.85
2019-06-26T11:22:22.293Z,12.75
2019-06-26T11:26:24.661Z,12.73
2019-06-26T11:28:25.838Z,12.70
2019-06-26T11:30:27.385Z,14.20
2019-06-26T11:32:28.559Z,14.73
2019-06-26T11:34:29.713Z,17.77
2019-06-26T11:36:31.001Z,15.23
2019-06-26T11:38:32.146Z,16.80
2019-06-26T11:42:35.197Z,13.95
2019-06-26T11:44:36.446Z,14.45
2019-06-26T11:46:37.895Z,14.58
2019-06-26T11:48:39.501Z,16.57
2019-06-26T11:50:41.665Z,14.87
2019-06-26T11:52:42.879Z,15.48
2019-06-26T11:55:01.132Z,16.07
2019-06-26T11:56:48.246Z,19.00
2019-06-26T11:58:49.505Z,17.45
2019-06-26T12:00:50.811Z,16.85
2019-06-26T12:02:52.116Z,15.98
2019-06-26T12:04:53.354Z,19.15
2019-06-26T12:06:54.525Z,24.43
2019-06-26T12:08:55.760Z,18.30
2019-06-26T12:10:57.941Z,21.93
2019-06-26T12:12:59.319Z,17.75
2019-06-26T12:15:00.530Z,23.73
2019-06-26T12:17:01.836Z,22.98
2019-06-26T12:19:03.460Z,24.82
2019-06-26T12:21:07.429Z,20.08
2019-06-26T12:23:08.781Z,18.62
2019-06-26T12:25:10.694Z,20.12
2019-06-26T12:27:11.944Z,19.75
2019-06-26T12:29:13.106Z,22.67
2019-06-26T12:31:14.280Z,18.02
2019-06-26T12:33:15.714Z,20.25
2019-06-26T12:35:16.900Z,18.32
2019-06-26T12:49:24.894Z,15.95
2019-06-26T12:51:26.189Z,13.90
2019-06-26T12:53:27.428Z,12.68
2019-06-26T12:55:32.670Z,13.28
2019-06-26T12:57:32.253Z,17.92
2019-06-26T12:59:33.503Z,13.85
2019-06-26T13:11:40.051Z,8.80
2019-06-26T13:19:44.887Z,10.25
2019-06-26T13:21:46.151Z,8.93
2019-06-26T13:23:47.354Z,7.87
2019-06-26T13:25:48.614Z,7.62
2019-06-26T13:27:49.881Z,10.20
2019-06-26T13:29:51.057Z,8.93
2019-06-26T13:31:52.564Z,9.75
2019-06-26T13:33:53.935Z,10.10
2019-06-26T13:35:55.398Z,8.90
2019-06-26T13:37:56.801Z,13.40
2019-06-26T13:39:58.062Z,7.85
2019-06-26T13:41:59.235Z,6.50
2019-06-26T13:44:00.419Z,8.60
2019-06-26T13:46:01.585Z,8.80
2019-06-26T14:02:11.923Z,9.10
2019-06-26T14:06:14.238Z,6.60
2019-06-26T14:08:15.416Z,7.10
2019-06-26T14:10:16.885Z,11.60
2019-06-26T14:12:19.250Z,7.60
2019-06-26T14:14:22.187Z,8.95
2019-06-26T14:16:23.743Z,8.53
2019-06-26T14:18:25.237Z,8.35
2019-06-26T14:20:26.752Z,7.67
2019-06-26T14:22:27.992Z,7.45
2019-06-26T14:24:29.161Z,7.42
2019-06-26T14:26:30.553Z,8.75
2019-06-26T14:28:31.975Z,8.30
2019-06-26T14:30:33.282Z,9.35
2019-06-26T14:32:34.585Z,8.90
2019-06-26T14:34:36.898Z,10.55
2019-06-26T14:36:38.136Z,8.78
2019-06-26T14:38:39.364Z,8.05
2019-06-26T14:40:40.865Z,8.10
2019-06-26T14:42:42.037Z,6.75
2019-06-26T14:44:43.205Z,8.75
2019-06-26T14:46:44.701Z,11.80
2019-06-26T14:48:46.874Z,11.68
2019-06-26T14:50:48.076Z,6.37
2019-06-26T14:52:49.244Z,9.45
2019-06-26T14:54:50.413Z,10.58
2019-06-26T14:56:51.579Z,8.73
2019-06-26T14:58:53.066Z,8.40
2019-06-26T15:00:54.220Z,7.47
2019-06-26T15:02:55.418Z,9.78
2019-06-26T15:04:56.655Z,12.82
2019-06-26T15:06:59.802Z,11.12
2019-06-26T15:09:00.983Z,10.13
2019-06-26T15:11:02.156Z,11.80
2019-06-26T15:13:03.320Z,8.55
2019-06-26T15:15:06.009Z,10.40
2019-06-26T15:17:07.367Z,11.63
2019-06-26T15:19:08.586Z,8.55
2019-06-26T15:21:09.860Z,10.23
2019-06-26T15:23:11.087Z,9.55
2019-06-26T15:25:14.373Z,9.40
2019-06-26T15:27:15.541Z,10.40
2019-06-26T15:29:16.731Z,8.90
2019-06-26T15:31:18.118Z,9.20
2019-06-26T15:35:20.626Z,9.00
2019-06-26T15:39:23.305Z,7.93
2019-06-26T16:11:43.895Z,7.00
2019-06-26T16:13:45.305Z,9.00
2019-06-26T16:15:46.789Z,6.75
2019-06-26T16:22:01.433Z,7.70
2019-06-26T16:40:14.300Z,7.10
2019-06-26T16:42:15.565Z,7.95
2019-06-26T16:44:17.076Z,6.40
2019-06-26T16:48:19.685Z,7.43
2019-06-26T17:00:28.083Z,8.25
2019-06-26T17:03:57.001Z,6.45
2019-06-26T17:05:59.187Z,6.75
2019-06-26T17:08:00.667Z,7.42
2019-06-26T17:10:07.138Z,8.93
2019-06-26T17:12:08.386Z,8.28
2019-06-26T17:14:09.557Z,8.45
2019-06-26T17:16:11.753Z,7.00
2019-06-26T17:18:12.929Z,8.00
2019-06-26T17:20:14.465Z,7.83
2019-06-26T17:22:15.621Z,9.98
2019-06-26T17:24:16.791Z,10.50
2019-06-26T17:26:18.971Z,7.60
2019-06-26T17:28:20.140Z,10.48
2019-06-26T17:30:21.893Z,9.08
2019-06-26T17:32:23.048Z,8.30
2019-06-26T17:34:27.149Z,7.80
2019-06-26T17:36:28.888Z,8.28
2019-06-26T17:38:30.322Z,8.20
2019-06-26T17:40:31.504Z,6.85
2019-06-26T17:42:32.797Z,10.15
2019-06-26T17:44:34.103Z,10.72
2019-06-26T17:46:35.538Z,6.67
2019-06-26T17:48:36.699Z,8.03
2019-06-26T17:50:37.962Z,9.58
2019-06-26T17:52:39.117Z,7.22
2019-06-26T17:54:41.309Z,7.05
2019-06-26T17:58:44.006Z,8.38
2019-06-26T18:00:45.287Z,6.70
2019-06-26T18:02:46.553Z,6.55
2019-06-26T18:06:48.857Z,7.12
2019-06-26T18:10:51.067Z,7.42
2019-06-26T18:14:53.274Z,7.62
2019-06-26T18:16:54.454Z,7.15
2019-06-26T18:20:56.710Z,7.72
2019-06-26T18:23:07.102Z,6.97
2019-06-26T18:25:01.024Z,6.80
2019-06-26T18:29:03.774Z,4.55
2019-06-26T18:31:04.945Z,5.50
2019-06-26T18:33:06.346Z,5.83
2019-06-26T18:35:07.962Z,4.90
2019-06-26T18:37:12.137Z,7.42
2019-06-26T18:39:13.622Z,6.37
2019-06-26T18:41:17.692Z,4.97
2019-06-26T18:43:17.854Z,5.20
2019-06-26T18:45:19.310Z,5.85
2019-06-26T18:47:20.629Z,4.85
2019-06-26T18:49:21.790Z,5.95
2019-06-26T18:51:23.030Z,6.50
2019-06-26T18:55:25.289Z,5.50
2019-06-26T18:57:26.716Z,9.75
2019-06-26T18:59:27.924Z,4.75
2019-06-26T19:01:29.137Z,6.72
2019-06-26T19:03:30.430Z,5.72
2019-06-26T19:05:31.845Z,5.85
2019-06-26T19:07:33.019Z,6.83
2019-06-26T19:09:34.193Z,5.42
2019-06-26T19:11:35.359Z,5.00
2019-06-26T19:13:36.521Z,7.78
2019-06-26T19:15:37.685Z,6.80
2019-06-26T19:17:42.226Z,6.35
2019-06-26T19:19:41.945Z,9.45
2019-06-26T19:21:43.182Z,7.75
2019-06-26T19:23:44.587Z,9.33
2019-06-26T19:27:47.194Z,9.30
2019-06-26T19:29:48.365Z,11.95
2019-06-26T19:31:49.886Z,8.63
2019-06-26T19:33:51.115Z,9.35
2019-06-26T19:35:52.392Z,10.03
2019-06-26T19:39:54.769Z,8.43
2019-06-26T19:41:55.997Z,7.75
2019-06-26T19:43:57.222Z,9.53
2019-06-26T19:45:58.413Z,10.85
2019-06-26T19:47:59.689Z,9.98
2019-06-26T19:50:01.173Z,9.93
2019-06-26T19:52:02.561Z,8.68
2019-06-26T19:56:05.137Z,8.63
2019-06-26T20:00:09.525Z,13.08
2019-06-26T20:02:10.774Z,10.63
2019-06-26T20:04:11.941Z,10.45
2019-06-26T20:06:13.162Z,13.62
2019-06-26T20:08:14.602Z,11.08
2019-06-26T20:12:17.189Z,10.40
2019-06-26T20:14:18.422Z,12.43
2019-06-26T20:16:19.672Z,9.63
2019-06-26T20:18:20.905Z,12.25
2019-06-26T20:20:22.058Z,10.40
2019-06-26T20:22:23.481Z,10.13
2019-06-26T20:26:26.026Z,10.72
2019-06-26T20:28:27.450Z,15.80
2019-06-26T20:32:31.837Z,7.22
2019-06-26T20:34:33.098Z,10.10
2019-06-26T20:38:36.007Z,10.40
2019-06-26T20:40:37.279Z,9.18
2019-06-26T20:42:38.554Z,7.80
2019-06-26T20:44:41.123Z,9.05
2019-06-26T20:46:42.904Z,7.28
2019-06-26T20:48:44.280Z,10.00
2019-06-26T20:50:45.496Z,8.55
2019-06-26T20:52:46.897Z,7.15
2019-06-26T20:55:00.664Z,10.58
2019-06-26T20:56:51.712Z,9.48
2019-06-26T20:58:52.894Z,9.68
2019-06-26T21:00:54.090Z,6.95
2019-06-26T21:02:55.388Z,9.53
2019-06-26T21:04:57.791Z,6.08
2019-06-26T21:06:59.005Z,8.85
2019-06-26T21:09:00.450Z,6.15
2019-06-26T21:11:01.899Z,7.78
2019-06-26T21:15:10.261Z,7.20
2019-06-26T21:17:11.435Z,6.00
2019-06-26T21:19:12.933Z,5.95
2019-06-26T21:23:18.885Z,5.58
2019-06-26T21:25:19.956Z,8.00
2019-06-26T21:27:21.501Z,6.85
2019-06-26T21:29:22.662Z,9.23
2019-06-26T21:31:24.210Z,8.68
2019-06-26T21:33:25.418Z,5.97
2019-06-26T21:35:26.618Z,5.72
2019-06-26T21:37:27.894Z,6.90
2019-06-26T21:39:29.204Z,6.28
2019-06-26T21:41:30.414Z,4.75
2019-06-26T21:43:31.606Z,8.93
2019-06-26T21:45:32.999Z,5.90
2019-06-26T21:47:34.221Z,8.30
2019-06-26T21:49:35.626Z,7.58
2019-06-26T21:51:36.786Z,6.42
2019-06-26T21:53:37.969Z,9.93
2019-06-26T21:55:57.236Z,5.53
2019-06-26T21:58:16.995Z,7.62
2019-06-26T22:00:41.645Z,5.67
2019-06-26T22:03:01.226Z,7.97
2019-06-26T22:05:05.407Z,7.03
2019-06-26T22:07:14.577Z,7.30
2019-06-26T22:09:32.683Z,8.33
2019-06-26T22:11:33.949Z,8.38
2019-06-26T22:13:35.229Z,10.15
2019-06-26T22:15:36.533Z,7.80
2019-06-26T22:17:37.822Z,4.75
2019-06-26T22:19:39.454Z,5.45
2019-06-26T22:23:42.058Z,8.20
2019-06-26T22:25:50.878Z,6.28
2019-06-26T22:27:46.705Z,7.65
2019-06-26T22:31:49.432Z,5.10
2019-06-26T22:35:51.755Z,4.90
2019-06-26T22:37:52.919Z,8.35
2019-06-26T22:39:54.190Z,5.08
2019-06-26T22:41:55.349Z,5.95
2019-06-26T22:43:56.526Z,8.28
2019-06-26T22:45:57.695Z,9.40
2019-06-26T22:47:58.872Z,6.97
2019-06-26T22:50:00.029Z,6.45
2019-06-26T22:52:01.209Z,7.05
2019-06-26T22:54:02.546Z,5.40
2019-06-26T22:56:07.985Z,7.25
2019-06-26T22:58:07.269Z,8.73
2019-06-26T23:00:10.830Z,7.80
2019-06-26T23:02:12.098Z,6.05
2019-06-26T23:04:13.271Z,5.53
2019-06-26T23:06:14.546Z,6.10
2019-06-26T23:08:16.734Z,7.60
2019-06-26T23:10:17.947Z,7.25
2019-06-26T23:12:19.414Z,5.17
2019-06-26T23:14:20.636Z,6.50
2019-06-26T23:16:21.823Z,6.85
2019-06-26T23:18:23.326Z,8.60
2019-06-26T23:20:25.172Z,9.15
2019-06-26T23:22:26.752Z,6.40
2019-06-26T23:26:29.394Z,7.90
2019-06-26T23:28:30.870Z,6.40
2019-06-26T23:30:32.031Z,9.30
2019-06-26T23:32:33.249Z,8.95
2019-06-26T23:34:34.418Z,8.85
2019-06-26T23:36:35.583Z,11.22
2019-06-26T23:38:37.026Z,11.85
2019-06-26T23:40:38.198Z,10.23
2019-06-26T23:42:39.362Z,8.68
2019-06-26T23:44:40.544Z,10.05
2019-06-26T23:46:41.949Z,11.15
2019-06-26T23:50:46.717Z,9.90
2019-06-26T23:52:48.018Z,9.98
2019-06-26T23:54:49.206Z,6.97
2019-06-26T23:56:50.450Z,9.33
2019-06-26T23:58:51.632Z,7.92
